createdAt,value
2017-04-04T00:00:39.297Z,22.43
2017-04-04T00:01:37.192Z,21.64
2017-04-04T00:02:35.040Z,21.43
2017-04-04T00:03:32.881Z,20.13
2017-04-04T00:04:30.748Z,20.86
2017-04-04T00:05:28.751Z,24.13
2017-04-04T00:06:26.614Z,24.21
2017-04-04T00:07:24.555Z,20.93
2017-04-04T00:08:22.397Z,21.26
2017-04-04T00:09:20.329Z,20.53
2017-04-04T00:10:18.237Z,18.76
2017-04-04T00:11:16.085Z,23.16
2017-04-04T00:12:13.931Z,21.31
2017-04-04T00:13:11.786Z,22.59
2017-04-04T00:14:09.828Z,21.96
2017-04-04T00:15:07.796Z,22.87
2017-04-04T00:16:05.665Z,25.33
2017-04-04T00:17:03.677Z,21.97
2017-04-04T00:18:01.545Z,22.99
2017-04-04T00:18:59.443Z,24.67
2017-04-04T00:19:57.253Z,27.61
2017-04-04T00:20:55.140Z,28.00
2017-04-04T00:21:53.017Z,23.20
2017-04-04T00:22:50.871Z,23.59
2017-04-04T00:23:48.710Z,24.46
2017-04-04T00:24:46.609Z,21.50
2017-04-04T00:25:44.533Z,29.20
2017-04-04T00:26:42.463Z,20.46
2017-04-04T00:27:40.296Z,22.19
2017-04-04T00:28:38.155Z,22.80
2017-04-04T00:29:35.978Z,24.74
2017-04-04T00:30:34.004Z,19.84
2017-04-04T00:31:31.894Z,22.09
2017-04-04T00:32:29.964Z,26.71
2017-04-04T00:33:27.831Z,28.03
2017-04-04T00:34:25.651Z,25.94
2017-04-04T00:35:23.600Z,27.13
2017-04-04T00:36:21.449Z,22.64
2017-04-04T00:37:19.260Z,24.89
2017-04-04T00:38:17.120Z,23.47
2017-04-04T00:39:15.220Z,24.93
2017-04-04T00:40:13.071Z,22.14
2017-04-04T00:41:11.021Z,25.81
2017-04-04T00:42:09.035Z,25.57
2017-04-04T00:43:06.936Z,20.64
2017-04-04T00:44:04.819Z,22.31
2017-04-04T00:45:02.712Z,26.90
2017-04-04T00:46:00.536Z,19.33
2017-04-04T00:46:58.483Z,21.44
2017-04-04T00:47:56.333Z,22.47
2017-04-04T00:48:54.184Z,23.37
2017-04-04T00:49:52.061Z,24.63
2017-04-04T00:50:49.911Z,21.24
2017-04-04T00:51:47.727Z,21.64
2017-04-04T00:52:45.540Z,20.43
2017-04-04T00:53:43.505Z,23.44
2017-04-04T00:54:41.399Z,23.24
2017-04-04T00:55:39.305Z,21.37
2017-04-04T00:56:37.200Z,22.34
2017-04-04T00:57:35.065Z,22.67
2017-04-04T00:58:32.912Z,26.06
2017-04-04T00:59:30.749Z,24.83
2017-04-04T01:00:28.619Z,22.81
2017-04-04T01:01:26.520Z,25.24
2017-04-04T01:02:24.390Z,25.00
2017-04-04T01:03:22.316Z,20.79
2017-04-04T01:04:20.192Z,21.17
2017-04-04T01:05:18.008Z,24.06
2017-04-04T01:06:15.848Z,22.96
2017-04-04T01:07:13.789Z,24.41
2017-04-04T01:08:11.661Z,24.19
2017-04-04T01:09:09.469Z,24.57
2017-04-04T01:10:07.697Z,23.20
2017-04-04T01:11:05.668Z,20.47
2017-04-04T01:12:03.524Z,24.66
2017-04-04T01:13:01.417Z,23.53
2017-04-04T01:13:59.272Z,20.80
2017-04-04T01:14:57.104Z,23.11
2017-04-04T01:15:54.924Z,21.39
2017-04-04T01:16:52.765Z,21.33
2017-04-04T01:17:50.735Z,23.31
2017-04-04T01:18:48.620Z,19.64
2017-04-04T01:19:46.444Z,20.40
2017-04-04T01:20:44.361Z,22.83
2017-04-04T01:21:42.208Z,22.56
2017-04-04T01:22:40.104Z,23.19
2017-04-04T01:23:37.948Z,26.49
2017-04-04T01:24:35.894Z,22.93
2017-04-04T01:25:33.809Z,24.41
2017-04-04T01:26:31.676Z,23.84
2017-04-04T01:27:29.572Z,22.28
2017-04-04T01:28:27.456Z,24.44
2017-04-04T01:29:25.272Z,22.31
2017-04-04T01:30:23.159Z,21.20
2017-04-04T01:31:21.215Z,22.89
2017-04-04T01:32:19.096Z,22.43
2017-04-04T01:33:17.025Z,22.96
2017-04-04T01:34:14.871Z,25.59
2017-04-04T01:35:12.790Z,22.57
2017-04-04T01:36:10.685Z,24.07
2017-04-04T01:37:08.511Z,22.53
2017-04-04T01:38:06.360Z,22.24
2017-04-04T01:39:04.676Z,21.33
2017-04-04T01:40:02.535Z,22.02
2017-04-04T01:41:00.420Z,25.41
2017-04-04T01:41:58.308Z,25.23
2017-04-04T01:42:56.227Z,26.04
2017-04-04T01:43:54.043Z,20.30
2017-04-04T01:44:51.930Z,22.14
2017-04-04T01:45:49.878Z,24.06
2017-04-04T01:46:47.751Z,25.13
2017-04-04T01:47:45.672Z,26.10
2017-04-04T01:48:43.532Z,24.17
2017-04-04T01:49:41.579Z,24.07
2017-04-04T01:50:39.463Z,19.44
2017-04-04T01:51:37.400Z,23.74
2017-04-04T01:52:35.256Z,22.94
2017-04-04T01:53:33.079Z,25.50
2017-04-04T01:54:31.003Z,25.13
2017-04-04T01:55:28.962Z,25.06
2017-04-04T01:56:26.935Z,27.54
2017-04-04T01:57:24.791Z,28.57
2017-04-04T01:58:22.687Z,22.00
2017-04-04T01:59:20.586Z,25.56
2017-04-04T02:00:18.850Z,31.16
2017-04-04T02:01:16.728Z,29.10
2017-04-04T02:02:14.612Z,30.60
2017-04-04T02:03:12.632Z,25.36
2017-04-04T02:04:10.491Z,29.16
2017-04-04T02:05:08.392Z,29.79
2017-04-04T02:06:06.308Z,24.33
2017-04-04T02:07:04.184Z,20.62
2017-04-04T02:08:02.007Z,24.10
2017-04-04T02:08:59.948Z,20.96
2017-04-04T02:09:57.802Z,32.10
2017-04-04T02:10:55.722Z,31.84
2017-04-04T02:11:53.620Z,26.21
2017-04-04T02:12:51.492Z,23.87
2017-04-04T02:13:49.471Z,25.60
2017-04-04T02:14:47.371Z,24.59
2017-04-04T02:15:45.297Z,28.67
2017-04-04T02:16:43.207Z,25.53
2017-04-04T02:17:41.208Z,27.10
2017-04-04T02:18:39.056Z,26.87
2017-04-04T02:19:36.963Z,27.95
2017-04-04T02:20:34.855Z,27.02
2017-04-04T02:21:32.786Z,27.46
2017-04-04T02:22:30.646Z,32.31
2017-04-04T02:23:28.567Z,33.65
2017-04-04T02:24:26.408Z,30.63
2017-04-04T02:25:24.313Z,26.77
2017-04-04T02:26:22.179Z,26.77
2017-04-04T02:27:20.056Z,28.48
2017-04-04T02:28:17.939Z,24.86
2017-04-04T02:29:15.856Z,28.01
2017-04-04T02:30:13.884Z,24.20
2017-04-04T02:31:11.779Z,24.66
2017-04-04T02:32:09.723Z,25.18
2017-04-04T02:33:07.591Z,24.20
2017-04-04T02:34:05.436Z,26.14
2017-04-04T02:35:03.320Z,28.51
2017-04-04T02:36:01.202Z,24.93
2017-04-04T02:36:59.118Z,24.13
2017-04-04T02:37:57.246Z,29.60
2017-04-04T02:38:55.095Z,26.46
2017-04-04T02:39:53.007Z,24.60
2017-04-04T02:40:50.886Z,22.96
2017-04-04T02:41:48.741Z,20.73
2017-04-04T02:42:46.568Z,24.65
2017-04-04T02:43:44.447Z,23.10
2017-04-04T02:44:42.396Z,28.24
2017-04-04T02:45:40.224Z,23.50
2017-04-04T02:46:38.135Z,23.72
2017-04-04T02:47:36.000Z,23.03
2017-04-04T02:48:33.896Z,28.90
2017-04-04T02:49:31.813Z,26.15
2017-04-04T02:50:29.706Z,26.72
2017-04-04T02:51:27.598Z,24.70
2017-04-04T02:52:25.450Z,26.48
2017-04-04T02:53:23.321Z,29.98
2017-04-04T02:54:21.177Z,26.79
2017-04-04T02:55:19.034Z,24.63
2017-04-04T02:56:16.980Z,26.49
2017-04-04T02:57:14.833Z,24.10
2017-04-04T02:58:12.754Z,22.43
2017-04-04T02:59:10.741Z,24.06
2017-04-04T03:00:08.656Z,27.08
2017-04-04T03:01:06.512Z,22.73
2017-04-04T03:02:04.473Z,26.26
2017-04-04T03:03:02.402Z,23.05
2017-04-04T03:04:00.228Z,19.45
2017-04-04T03:04:58.084Z,22.37
2017-04-04T03:05:56.050Z,24.75
2017-04-04T03:06:53.965Z,29.27
2017-04-04T03:07:51.780Z,25.38
2017-04-04T03:08:49.685Z,24.28
2017-04-04T03:09:47.556Z,23.20
2017-04-04T03:10:45.583Z,27.69
2017-04-04T03:11:43.549Z,28.93
2017-04-04T03:12:41.468Z,24.13
2017-04-04T03:13:39.445Z,24.87
2017-04-04T03:14:37.268Z,28.00
2017-04-04T03:15:35.172Z,28.47
2017-04-04T03:16:32.983Z,26.12
2017-04-04T03:17:30.893Z,22.65
2017-04-04T03:18:28.748Z,23.60
2017-04-04T03:19:26.632Z,26.12
2017-04-04T03:20:24.517Z,25.53
2017-04-04T03:21:22.368Z,26.57
2017-04-04T03:22:20.225Z,24.87
2017-04-04T03:23:18.120Z,28.13
2017-04-04T03:24:16.027Z,25.75
2017-04-04T03:25:13.906Z,28.57
2017-04-04T03:26:11.839Z,25.41
2017-04-04T03:27:09.787Z,25.17
2017-04-04T03:28:07.912Z,25.85
2017-04-04T03:29:05.962Z,25.26
2017-04-04T03:30:03.837Z,28.07
2017-04-04T03:31:01.857Z,24.75
2017-04-04T03:31:59.731Z,20.96
2017-04-04T03:32:57.681Z,27.62
2017-04-04T03:33:55.576Z,28.33
2017-04-04T03:34:53.485Z,23.03
2017-04-04T03:35:51.320Z,23.17
2017-04-04T03:36:49.236Z,29.51
2017-04-04T03:37:47.181Z,28.17
2017-04-04T03:38:45.025Z,24.93
2017-04-04T03:39:42.875Z,22.45
2017-04-04T03:40:40.732Z,23.13
2017-04-04T03:41:38.675Z,27.88
2017-04-04T03:42:36.508Z,22.28
2017-04-04T03:43:34.437Z,22.97
2017-04-04T03:44:32.290Z,24.80
2017-04-04T03:45:30.223Z,28.90
2017-04-04T03:46:28.052Z,25.51
2017-04-04T03:47:25.867Z,29.53
2017-04-04T03:48:23.788Z,26.63
2017-04-04T03:49:21.640Z,27.92
2017-04-04T03:50:19.584Z,23.25
2017-04-04T03:51:17.470Z,23.23
2017-04-04T03:52:15.290Z,25.85
2017-04-04T03:53:13.196Z,23.12
2017-04-04T03:54:11.073Z,26.93
2017-04-04T03:55:08.983Z,34.18
2017-04-04T03:56:06.833Z,25.79
2017-04-04T03:57:04.687Z,27.43
2017-04-04T03:58:02.628Z,24.02
2017-04-04T03:59:00.471Z,26.58
2017-04-04T03:59:58.324Z,22.42
2017-04-04T04:00:56.164Z,22.93
2017-04-04T04:01:54.056Z,25.40
2017-04-04T04:02:51.899Z,25.00
2017-04-04T04:03:49.888Z,24.75
2017-04-04T04:04:47.814Z,25.07
2017-04-04T04:05:45.675Z,25.43
2017-04-04T04:06:43.568Z,28.03
2017-04-04T04:07:41.464Z,29.27
2017-04-04T04:08:39.336Z,28.23
2017-04-04T04:09:37.224Z,30.10
2017-04-04T04:10:35.092Z,31.93
2017-04-04T04:11:32.925Z,28.22
2017-04-04T04:12:30.818Z,27.05
2017-04-04T04:13:28.658Z,26.70
2017-04-04T04:14:26.512Z,29.22
2017-04-04T04:15:24.402Z,27.31
2017-04-04T04:16:22.380Z,26.74
2017-04-04T04:17:20.189Z,26.50
2017-04-04T04:18:18.045Z,27.05
2017-04-04T04:19:15.935Z,30.78
2017-04-04T04:20:13.861Z,28.55
2017-04-04T04:21:11.719Z,26.10
2017-04-04T04:22:09.564Z,25.72
2017-04-04T04:23:07.523Z,26.82
2017-04-04T04:24:05.403Z,30.33
2017-04-04T04:25:03.278Z,27.02
2017-04-04T04:26:01.129Z,29.45
2017-04-04T04:26:59.018Z,27.72
2017-04-04T04:27:56.851Z,26.07
2017-04-04T04:28:54.799Z,24.57
2017-04-04T04:29:52.712Z,28.98
2017-04-04T04:30:50.606Z,26.77
2017-04-04T04:31:48.463Z,27.03
2017-04-04T04:32:46.297Z,28.78
2017-04-04T04:33:44.124Z,24.23
2017-04-04T04:34:42.033Z,26.42
2017-04-04T04:35:39.861Z,21.75
2017-04-04T04:36:37.773Z,24.73
2017-04-04T04:37:35.712Z,22.37
2017-04-04T04:38:33.595Z,25.20
2017-04-04T04:39:31.485Z,27.27
2017-04-04T04:40:29.383Z,26.87
2017-04-04T04:41:27.247Z,26.43
2017-04-04T04:42:25.147Z,26.72
2017-04-04T04:43:23.029Z,25.62
2017-04-04T04:44:20.870Z,26.93
2017-04-04T04:45:19.013Z,31.50
2017-04-04T04:46:16.906Z,27.78
2017-04-04T04:47:14.760Z,26.93
2017-04-04T04:48:12.789Z,27.53
2017-04-04T04:49:10.911Z,23.90
2017-04-04T04:50:08.824Z,29.58
2017-04-04T04:51:06.668Z,29.87
2017-04-04T04:52:04.541Z,27.03
2017-04-04T04:53:02.409Z,24.30
2017-04-04T04:54:00.225Z,32.70
2017-04-04T04:54:58.060Z,23.38
2017-04-04T04:55:55.973Z,24.33
2017-04-04T04:56:53.817Z,23.68
2017-04-04T04:57:51.647Z,28.47
2017-04-04T04:58:49.608Z,22.90
2017-04-04T04:59:47.536Z,22.47
2017-04-04T05:00:45.504Z,27.30
2017-04-04T05:01:43.383Z,26.50
2017-04-04T05:02:41.280Z,39.38
2017-04-04T05:03:39.145Z,25.78
2017-04-04T05:04:37.057Z,24.01
2017-04-04T05:05:34.928Z,33.35
2017-04-04T05:06:32.910Z,24.33
2017-04-04T05:07:30.815Z,24.76
2017-04-04T05:08:28.756Z,20.00
2017-04-04T05:09:26.666Z,22.73
2017-04-04T05:10:24.484Z,29.07
2017-04-04T05:11:22.317Z,28.92
2017-04-04T05:12:20.208Z,23.75
2017-04-04T05:13:18.071Z,24.45
2017-04-04T05:14:15.954Z,28.37
2017-04-04T05:15:13.837Z,26.10
2017-04-04T05:16:11.728Z,29.13
2017-04-04T05:17:09.700Z,28.58
2017-04-04T05:18:07.571Z,27.52
2017-04-04T05:19:05.500Z,30.03
2017-04-04T05:20:03.437Z,30.02
2017-04-04T05:21:01.359Z,28.10
2017-04-04T05:21:59.425Z,27.12
2017-04-04T05:24:08.264Z,28.62
2017-04-04T05:25:06.134Z,28.37
2017-04-04T05:26:03.996Z,29.98
2017-04-04T05:27:01.805Z,23.67
2017-04-04T05:27:59.839Z,28.23
2017-04-04T05:28:57.704Z,28.42
2017-04-04T05:29:55.609Z,25.52
2017-04-04T05:30:53.516Z,24.45
2017-04-04T05:31:51.359Z,29.01
2017-04-04T05:32:49.288Z,24.58
2017-04-04T05:33:47.120Z,25.70
2017-04-04T05:34:44.982Z,27.42
2017-04-04T05:35:44.296Z,27.17
2017-04-04T05:36:42.313Z,28.80
2017-04-04T05:37:40.143Z,26.55
2017-04-04T05:38:38.022Z,28.13
2017-04-04T05:39:35.857Z,29.82
2017-04-04T05:40:33.723Z,28.00
2017-04-04T05:41:31.648Z,28.01
2017-04-04T05:42:29.495Z,28.24
2017-04-04T05:43:27.425Z,30.43
2017-04-04T05:44:25.390Z,26.85
2017-04-04T05:45:23.354Z,30.85
2017-04-04T05:46:21.249Z,28.22
2017-04-04T05:47:19.205Z,30.64
2017-04-04T05:48:17.064Z,28.81
2017-04-04T05:49:14.940Z,30.98
2017-04-04T05:50:12.859Z,30.72
2017-04-04T05:51:10.676Z,27.37
2017-04-04T05:52:09.729Z,29.62
2017-04-04T05:53:07.627Z,30.04
2017-04-04T05:54:05.472Z,29.98
2017-04-04T05:55:03.356Z,30.21
2017-04-04T05:56:01.276Z,27.89
2017-04-04T05:56:59.168Z,29.85
2017-04-04T05:57:57.029Z,28.68
2017-04-04T05:58:54.924Z,35.68
2017-04-04T05:59:52.815Z,28.11
2017-04-04T06:00:50.684Z,30.33
2017-04-04T06:01:48.621Z,30.88
2017-04-04T06:02:46.521Z,35.79
2017-04-04T06:03:44.399Z,33.20
2017-04-04T06:04:42.309Z,32.12
2017-04-04T06:05:40.214Z,31.48
2017-04-04T06:06:38.132Z,33.65
2017-04-04T06:07:35.993Z,34.37
2017-04-04T06:08:33.932Z,37.70
2017-04-04T06:09:31.800Z,34.32
2017-04-04T06:10:30.101Z,32.67
2017-04-04T06:11:28.325Z,33.90
2017-04-04T06:12:26.271Z,40.13
2017-04-04T06:13:25.201Z,35.52
2017-04-04T06:14:23.209Z,34.27
2017-04-04T06:15:21.153Z,36.93
2017-04-04T06:16:19.225Z,31.62
2017-04-04T06:17:17.108Z,33.87
2017-04-04T06:18:14.993Z,35.40
2017-04-04T06:19:12.871Z,38.62
2017-04-04T06:20:10.760Z,42.55
2017-04-04T06:21:08.635Z,43.18
2017-04-04T06:22:06.492Z,41.93
2017-04-04T06:23:04.353Z,39.72
2017-04-04T06:24:02.222Z,45.70
2017-04-04T06:25:00.108Z,34.40
2017-04-04T06:25:58.016Z,31.46
2017-04-04T06:26:55.968Z,37.90
2017-04-04T06:27:53.849Z,36.45
2017-04-04T06:28:51.758Z,39.57
2017-04-04T06:29:49.605Z,35.77
2017-04-04T06:30:47.494Z,32.47
2017-04-04T06:31:45.374Z,37.16
2017-04-04T06:32:43.196Z,35.07
2017-04-04T06:33:41.040Z,36.45
2017-04-04T06:34:39.057Z,38.58
2017-04-04T06:35:36.924Z,39.05
2017-04-04T06:36:34.820Z,34.10
2017-04-04T06:37:32.689Z,42.33
2017-04-04T06:38:30.530Z,42.32
2017-04-04T06:39:28.434Z,41.30
2017-04-04T06:40:26.340Z,41.88
2017-04-04T06:41:24.157Z,40.75
2017-04-04T06:42:21.983Z,42.72
2017-04-04T06:43:19.927Z,43.03
2017-04-04T06:44:17.844Z,38.33
2017-04-04T06:45:15.764Z,40.94
2017-04-04T06:46:13.659Z,41.18
2017-04-04T06:47:15.828Z,31.88
2017-04-04T06:48:13.903Z,38.07
2017-04-04T06:49:11.792Z,38.67
2017-04-04T06:50:10.167Z,34.30
2017-04-04T06:51:08.023Z,36.03
2017-04-04T06:52:05.896Z,34.80
2017-04-04T06:53:03.867Z,40.69
2017-04-04T06:54:01.880Z,41.30
2017-04-04T06:54:59.808Z,38.50
2017-04-04T06:55:57.676Z,36.34
2017-04-04T06:56:55.597Z,40.98
2017-04-04T06:57:53.486Z,34.84
2017-04-04T06:58:51.453Z,38.47
2017-04-04T06:59:49.415Z,37.16
2017-04-04T07:00:47.424Z,38.57
2017-04-04T07:01:45.333Z,35.80
2017-04-04T07:02:45.303Z,41.90
2017-04-04T07:03:43.339Z,36.21
2017-04-04T07:04:41.361Z,37.33
2017-04-04T07:05:39.498Z,38.76
2017-04-04T07:06:37.539Z,37.33
2017-04-04T07:07:35.441Z,36.39
2017-04-04T07:08:33.460Z,40.16
2017-04-04T07:09:31.328Z,38.39
2017-04-04T07:10:29.168Z,36.70
2017-04-04T07:11:27.011Z,41.76
2017-04-04T07:12:24.956Z,37.01
2017-04-04T07:13:22.849Z,36.67
2017-04-04T07:14:20.788Z,35.17
2017-04-04T07:15:18.717Z,35.10
2017-04-04T07:16:16.588Z,37.56
2017-04-04T07:17:14.420Z,36.71
2017-04-04T07:18:12.348Z,34.30
2017-04-04T07:19:10.260Z,46.83
2017-04-04T07:20:08.180Z,35.94
2017-04-04T07:21:06.100Z,37.43
2017-04-04T07:22:03.969Z,38.06
2017-04-04T07:23:01.870Z,33.60
2017-04-04T07:23:59.775Z,35.91
2017-04-04T07:24:57.803Z,34.11
2017-04-04T07:25:55.800Z,40.56
2017-04-04T07:26:53.661Z,43.30
2017-04-04T07:27:51.565Z,40.81
2017-04-04T07:28:49.439Z,38.26
2017-04-04T07:29:47.342Z,42.51
2017-04-04T07:30:45.245Z,38.00
2017-04-04T07:31:43.187Z,37.27
2017-04-04T07:32:41.128Z,42.39
2017-04-04T07:33:38.980Z,33.53
2017-04-04T07:34:36.849Z,40.11
2017-04-04T07:35:34.702Z,38.87
2017-04-04T07:36:32.606Z,34.80
2017-04-04T07:37:30.501Z,34.96
2017-04-04T07:38:28.350Z,34.69
2017-04-04T07:39:26.222Z,35.41
2017-04-04T07:40:24.180Z,37.04
2017-04-04T07:41:22.125Z,36.91
2017-04-04T07:42:20.080Z,36.80
2017-04-04T07:43:18.005Z,37.17
2017-04-04T07:44:15.957Z,37.20
2017-04-04T07:45:13.835Z,34.26
2017-04-04T07:46:11.752Z,38.81
2017-04-04T07:47:09.636Z,33.76
2017-04-04T07:48:07.542Z,35.71
2017-04-04T07:49:05.419Z,37.03
2017-04-04T07:50:03.506Z,38.13
2017-04-04T07:51:01.433Z,36.96
2017-04-04T07:51:59.383Z,38.06
2017-04-04T07:52:57.230Z,36.51
2017-04-04T07:53:55.137Z,35.83
2017-04-04T07:54:53.062Z,34.13
2017-04-04T07:55:50.967Z,37.10
2017-04-04T07:56:48.825Z,38.31
2017-04-04T07:57:46.751Z,35.27
2017-04-04T07:58:44.707Z,36.34
2017-04-04T07:59:42.605Z,34.63
2017-04-04T08:00:40.520Z,33.53
2017-04-04T08:01:38.450Z,33.49
2017-04-04T08:02:36.493Z,34.79
2017-04-04T08:03:34.416Z,34.44
2017-04-04T08:04:32.333Z,35.84
2017-04-04T08:05:30.191Z,33.91
2017-04-04T08:06:28.101Z,33.31
2017-04-04T08:07:25.972Z,34.97
2017-04-04T08:08:23.846Z,34.07
2017-04-04T08:09:21.722Z,34.30
2017-04-04T08:10:19.771Z,34.13
2017-04-04T08:11:17.682Z,35.29
2017-04-04T08:12:15.579Z,34.97
2017-04-04T08:13:13.469Z,33.63
2017-04-04T08:14:11.411Z,31.93
2017-04-04T08:15:09.268Z,33.06
2017-04-04T08:16:07.128Z,31.14
2017-04-04T08:17:04.992Z,35.70
2017-04-04T08:18:02.880Z,34.96
2017-04-04T08:19:00.768Z,31.94
2017-04-04T08:19:58.667Z,29.66
2017-04-04T08:20:56.509Z,32.87
2017-04-04T08:21:54.392Z,35.23
2017-04-04T08:22:52.293Z,29.47
2017-04-04T08:23:50.192Z,34.39
2017-04-04T08:24:48.064Z,33.89
2017-04-04T08:25:46.007Z,33.33
2017-04-04T08:26:43.904Z,33.81
2017-04-04T08:27:41.963Z,34.59
2017-04-04T08:28:39.821Z,39.04
2017-04-04T08:29:37.745Z,32.13
2017-04-04T08:30:35.583Z,35.00
2017-04-04T08:31:33.537Z,39.41
2017-04-04T08:32:31.396Z,37.91
2017-04-04T08:33:29.326Z,35.36
2017-04-04T08:34:27.192Z,33.01
2017-04-04T08:35:25.092Z,37.33
2017-04-04T08:36:22.964Z,36.79
2017-04-04T08:37:20.813Z,31.99
2017-04-04T08:38:18.656Z,32.41
2017-04-04T08:39:16.604Z,35.41
2017-04-04T08:40:14.504Z,31.50
2017-04-04T08:41:12.411Z,34.20
2017-04-04T08:42:10.316Z,37.11
2017-04-04T08:43:08.248Z,33.14
2017-04-04T08:44:06.186Z,34.03
2017-04-04T08:45:04.093Z,33.11
2017-04-04T08:46:02.013Z,32.53
2017-04-04T08:46:59.900Z,33.01
2017-04-04T08:47:57.777Z,31.94
2017-04-04T08:48:55.636Z,34.51
2017-04-04T08:49:53.485Z,34.23
2017-04-04T08:50:51.431Z,31.97
2017-04-04T08:51:49.328Z,33.11
2017-04-04T08:52:47.221Z,30.29
2017-04-04T08:53:45.095Z,33.20
2017-04-04T08:54:43.036Z,31.53
2017-04-04T08:55:40.887Z,31.84
2017-04-04T08:56:38.777Z,33.76
2017-04-04T08:57:36.695Z,38.34
2017-04-04T08:58:36.143Z,31.46
2017-04-04T08:59:33.988Z,29.13
2017-04-04T09:00:32.000Z,32.23
2017-04-04T09:01:30.173Z,33.46
2017-04-04T09:02:28.266Z,31.90
2017-04-04T09:03:30.307Z,32.34
2017-04-04T09:04:29.636Z,27.74
2017-04-04T09:05:27.574Z,31.96
2017-04-04T09:06:25.481Z,32.69
2017-04-04T09:07:23.338Z,30.87
2017-04-04T09:08:21.390Z,31.01
2017-04-04T09:09:19.323Z,29.26
2017-04-04T09:10:17.191Z,28.81
2017-04-04T09:11:15.074Z,35.04
2017-04-04T09:12:12.908Z,29.74
2017-04-04T09:13:10.876Z,30.11
2017-04-04T09:14:08.774Z,28.99
2017-04-04T09:15:06.669Z,29.91
2017-04-04T09:16:04.477Z,29.29
2017-04-04T09:17:02.366Z,29.23
2017-04-04T09:18:00.284Z,29.20
2017-04-04T09:18:58.172Z,31.10
2017-04-04T09:19:56.024Z,29.11
2017-04-04T09:20:54.005Z,33.47
2017-04-04T09:21:51.889Z,30.71
2017-04-04T09:22:49.825Z,27.50
2017-04-04T09:23:47.720Z,26.77
2017-04-04T09:24:45.601Z,24.63
2017-04-04T09:25:43.475Z,27.36
2017-04-04T09:26:41.349Z,29.30
2017-04-04T09:27:39.184Z,25.99
2017-04-04T09:28:37.067Z,23.80
2017-04-04T09:29:36.089Z,27.47
2017-04-04T09:30:33.977Z,26.57
2017-04-04T09:31:31.820Z,26.56
2017-04-04T09:32:29.675Z,25.33
2017-04-04T09:33:27.581Z,28.29
2017-04-04T09:34:25.447Z,25.30
2017-04-04T09:35:23.303Z,24.39
2017-04-04T09:36:21.243Z,27.57
2017-04-04T09:37:19.199Z,23.61
2017-04-04T09:38:17.209Z,24.20
2017-04-04T09:39:15.049Z,23.44
2017-04-04T09:40:13.018Z,24.73
2017-04-04T09:41:10.872Z,27.13
2017-04-04T09:42:08.837Z,23.23
2017-04-04T09:43:06.765Z,25.90
2017-04-04T09:44:06.896Z,27.10
2017-04-04T09:45:04.804Z,23.04
2017-04-04T09:46:02.652Z,21.96
2017-04-04T09:47:00.575Z,21.57
2017-04-04T09:47:59.562Z,17.01
2017-04-04T09:48:57.425Z,22.87
2017-04-04T09:49:55.313Z,19.31
2017-04-04T09:50:53.212Z,19.81
2017-04-04T09:51:51.144Z,20.69
2017-04-04T09:52:49.045Z,22.06
2017-04-04T09:53:46.977Z,20.97
2017-04-04T09:54:44.893Z,23.83
2017-04-04T09:55:42.888Z,20.73
2017-04-04T09:56:40.844Z,20.74
2017-04-04T09:57:38.705Z,29.17
2017-04-04T09:58:36.573Z,24.44
2017-04-04T09:59:34.474Z,23.76
2017-04-04T10:00:38.989Z,19.49
2017-04-04T10:01:36.898Z,22.80
2017-04-04T10:02:34.816Z,17.37
2017-04-04T10:03:32.710Z,19.30
2017-04-04T10:04:30.672Z,18.41
2017-04-04T10:05:29.006Z,19.49
2017-04-04T10:06:26.918Z,16.84
2017-04-04T10:07:24.876Z,16.76
2017-04-04T10:08:22.755Z,16.33
2017-04-04T10:09:20.682Z,18.97
2017-04-04T10:10:18.608Z,17.30
2017-04-04T10:11:16.462Z,15.16
2017-04-04T10:12:14.360Z,16.67
2017-04-04T10:13:12.248Z,16.21
2017-04-04T10:14:10.256Z,16.70
2017-04-04T10:15:08.200Z,16.41
2017-04-04T10:16:06.136Z,16.27
2017-04-04T10:17:04.123Z,16.10
2017-04-04T10:18:02.052Z,15.36
2017-04-04T10:18:59.964Z,15.96
2017-04-04T10:19:57.888Z,15.96
2017-04-04T10:20:55.888Z,15.33
2017-04-04T10:21:53.768Z,15.56
2017-04-04T10:22:51.644Z,15.74
2017-04-04T10:23:49.544Z,15.37
2017-04-04T10:24:47.409Z,14.66
2017-04-04T10:25:45.303Z,16.13
2017-04-04T10:26:43.152Z,15.44
2017-04-04T10:27:41.115Z,15.63
2017-04-04T10:28:38.993Z,17.80
2017-04-04T10:29:36.861Z,15.36
2017-04-04T10:30:34.785Z,17.59
2017-04-04T10:31:32.759Z,16.73
2017-04-04T10:32:30.655Z,17.20
2017-04-04T10:33:28.558Z,16.24
2017-04-04T10:34:26.470Z,16.96
2017-04-04T10:35:24.409Z,19.13
2017-04-04T10:36:22.352Z,18.97
2017-04-04T10:37:20.243Z,16.29
2017-04-04T10:38:18.408Z,15.54
2017-04-04T10:39:16.300Z,17.93
2017-04-04T10:40:14.188Z,17.60
2017-04-04T10:41:12.105Z,17.36
2017-04-04T10:42:09.973Z,18.81
2017-04-04T10:43:07.869Z,20.76
2017-04-04T10:44:05.801Z,18.11
2017-04-04T10:45:03.689Z,18.07
2017-04-04T10:46:01.648Z,17.56
2017-04-04T10:46:59.481Z,17.13
2017-04-04T10:47:57.387Z,17.01
2017-04-04T10:48:55.277Z,15.61
2017-04-04T10:49:53.119Z,20.31
2017-04-04T10:50:51.000Z,15.14
2017-04-04T10:51:48.955Z,17.33
2017-04-04T10:52:46.836Z,16.71
2017-04-04T10:53:44.762Z,14.77
2017-04-04T10:54:42.684Z,15.71
2017-04-04T10:55:40.669Z,13.53
2017-04-04T10:56:38.558Z,13.19
2017-04-04T10:57:36.496Z,13.60
2017-04-04T10:58:34.372Z,13.96
2017-04-04T10:59:32.244Z,15.20
2017-04-04T11:00:30.208Z,16.17
2017-04-04T11:01:28.091Z,14.37
2017-04-04T11:02:26.018Z,14.11
2017-04-04T11:03:23.900Z,14.86
2017-04-04T11:04:21.797Z,14.60
2017-04-04T11:05:19.784Z,15.14
2017-04-04T11:06:17.858Z,14.10
2017-04-04T11:07:15.704Z,14.39
2017-04-04T11:08:13.623Z,16.16
2017-04-04T11:09:11.507Z,13.26
2017-04-04T11:10:09.432Z,14.49
2017-04-04T11:11:07.299Z,14.40
2017-04-04T11:12:09.821Z,14.39
2017-04-04T11:13:07.893Z,13.29
2017-04-04T11:14:05.783Z,13.91
2017-04-04T11:15:03.748Z,14.63
2017-04-04T11:16:01.638Z,13.81
2017-04-04T11:16:59.551Z,13.63
2017-04-04T11:17:57.643Z,12.24
2017-04-04T11:18:55.570Z,15.30
2017-04-04T11:19:53.433Z,13.11
2017-04-04T11:20:51.427Z,12.10
2017-04-04T11:21:49.305Z,12.29
2017-04-04T11:22:47.187Z,12.93
2017-04-04T11:23:45.063Z,14.33
2017-04-04T11:24:42.952Z,15.33
2017-04-04T11:25:40.869Z,13.73
2017-04-04T11:26:38.727Z,13.19
2017-04-04T11:27:36.604Z,14.10
2017-04-04T11:28:34.491Z,12.57
2017-04-04T11:29:32.761Z,12.74
2017-04-04T11:30:30.586Z,14.64
2017-04-04T11:31:28.581Z,12.13
2017-04-04T11:32:26.444Z,13.29
2017-04-04T11:33:26.997Z,12.13
2017-04-04T11:34:24.952Z,12.17
2017-04-04T11:35:23.019Z,13.51
2017-04-04T11:36:21.021Z,13.07
2017-04-04T11:37:18.929Z,13.07
2017-04-04T11:38:16.867Z,13.24
2017-04-04T11:39:14.772Z,13.84
2017-04-04T11:40:12.663Z,14.24
2017-04-04T11:41:10.533Z,12.84
2017-04-04T11:42:08.489Z,13.53
2017-04-04T11:43:06.359Z,13.31
2017-04-04T11:44:04.224Z,12.97
2017-04-04T11:45:02.062Z,12.99
2017-04-04T11:45:59.946Z,16.24
2017-04-04T11:46:57.781Z,14.66
2017-04-04T11:47:55.600Z,13.23
2017-04-04T11:48:53.432Z,13.47
2017-04-04T11:49:51.612Z,13.63
2017-04-04T11:50:49.575Z,13.13
2017-04-04T11:51:47.451Z,14.26
2017-04-04T11:52:45.281Z,14.07
2017-04-04T11:53:43.235Z,12.06
2017-04-04T11:54:41.141Z,11.50
2017-04-04T11:55:38.980Z,12.86
2017-04-04T11:56:36.832Z,11.74
2017-04-04T11:57:34.691Z,10.64
2017-04-04T11:58:32.578Z,11.53
2017-04-04T11:59:30.459Z,11.21
2017-04-04T12:00:28.426Z,11.10
2017-04-04T12:01:26.395Z,10.40
2017-04-04T12:02:24.561Z,12.17
2017-04-04T12:03:22.465Z,11.17
2017-04-04T12:04:20.392Z,12.29
2017-04-04T12:05:18.261Z,11.49
2017-04-04T12:06:16.131Z,13.26
2017-04-04T12:07:14.009Z,11.74
2017-04-04T12:08:11.924Z,12.49
2017-04-04T12:09:09.809Z,13.29
2017-04-04T12:10:07.705Z,11.51
2017-04-04T12:11:05.640Z,12.21
2017-04-04T12:12:03.549Z,11.07
2017-04-04T12:13:01.424Z,10.93
2017-04-04T12:13:59.617Z,11.80
2017-04-04T12:14:57.500Z,11.21
2017-04-04T12:15:55.637Z,11.54
2017-04-04T12:16:53.648Z,12.71
2017-04-04T12:17:51.666Z,13.97
2017-04-04T12:18:49.545Z,12.24
2017-04-04T12:19:47.779Z,13.10
2017-04-04T12:20:45.613Z,13.90
2017-04-04T12:21:43.611Z,13.01
2017-04-04T12:22:41.462Z,13.56
2017-04-04T12:23:39.421Z,15.01
2017-04-04T12:24:37.297Z,13.44
2017-04-04T12:25:35.268Z,13.43
2017-04-04T12:26:33.101Z,11.33
2017-04-04T12:27:31.585Z,12.07